createdAt,value
2023-03-08T00:00:55.029Z,420.00
2023-03-08T00:01:52.850Z,422.00
2023-03-08T00:02:52.973Z,421.00
2023-03-08T00:03:52.841Z,423.00
2023-03-08T00:04:52.918Z,424.00
2023-03-08T00:05:52.792Z,424.00
2023-03-08T00:06:56.069Z,422.00
2023-03-08T00:07:52.776Z,424.00
2023-03-08T00:08:54.977Z,427.00
2023-03-08T00:09:52.748Z,428.00
2023-03-08T00:10:52.909Z,426.00
2023-03-08T00:11:52.716Z,429.00
2023-03-08T00:12:53.917Z,430.00
2023-03-08T00:13:52.704Z,431.00
2023-03-08T00:14:52.778Z,427.00
2023-03-08T00:15:52.723Z,429.00
2023-03-08T00:16:52.722Z,434.00
2023-03-08T00:17:52.696Z,434.00
2023-03-08T00:18:54.780Z,434.00
2023-03-08T00:19:52.620Z,432.00
2023-03-08T00:20:52.796Z,425.00
2023-03-08T00:21:52.587Z,425.00
2023-03-08T00:22:52.717Z,424.00
2023-03-08T00:23:52.555Z,428.00
2023-03-08T00:24:52.606Z,430.00
2023-03-08T00:25:52.542Z,430.00
2023-03-08T00:26:52.687Z,434.00
2023-03-08T00:27:52.505Z,434.00
2023-03-08T00:28:52.668Z,433.00
2023-03-08T00:29:52.484Z,434.00
2023-03-08T00:30:52.617Z,434.00
2023-03-08T00:31:52.458Z,433.00
2023-03-08T00:32:52.504Z,431.00
2023-03-08T00:33:52.439Z,431.00
2023-03-08T00:34:53.558Z,429.00
2023-03-08T00:35:52.627Z,432.00
2023-03-08T00:36:53.719Z,436.00
2023-03-08T00:37:52.441Z,432.00
2023-03-08T00:38:52.607Z,434.00
2023-03-08T00:39:52.407Z,433.00
2023-03-08T00:40:52.549Z,433.00
2023-03-08T00:41:52.328Z,433.00
2023-03-08T00:42:53.519Z,434.00
2023-03-08T00:43:52.308Z,434.00
2023-03-08T00:44:52.420Z,435.00
2023-03-08T00:45:53.287Z,438.00
2023-03-08T00:47:15.421Z,437.00
2023-03-08T00:47:52.250Z,434.00
2023-03-08T00:48:52.440Z,435.00
2023-03-08T00:49:52.229Z,433.00
2023-03-08T00:50:52.436Z,433.00
2023-03-08T00:51:52.216Z,434.00
2023-03-08T00:52:52.250Z,434.00
2023-03-08T00:53:52.181Z,435.00
2023-03-08T00:54:52.350Z,433.00
2023-03-08T00:55:52.150Z,433.00
2023-03-08T00:56:52.328Z,432.00
2023-03-08T00:57:52.129Z,431.00
2023-03-08T00:58:52.259Z,433.00
2023-03-08T00:59:52.104Z,431.00
2023-03-08T01:00:52.182Z,430.00
2023-03-08T01:01:52.070Z,428.00
2023-03-08T01:02:52.149Z,425.00
2023-03-08T01:03:52.095Z,425.00
2023-03-08T01:04:52.169Z,422.00
2023-03-08T01:05:52.034Z,424.00
2023-03-08T01:06:52.160Z,424.00
2023-03-08T01:07:51.997Z,426.00
2023-03-08T01:08:52.140Z,424.00
2023-03-08T01:09:52.035Z,423.00
2023-03-08T01:10:52.067Z,426.00
2023-03-08T01:11:51.953Z,426.00
2023-03-08T01:12:52.057Z,427.00
2023-03-08T01:13:51.927Z,427.00
2023-03-08T01:14:53.072Z,428.00
2023-03-08T01:15:51.896Z,428.00
2023-03-08T01:16:52.087Z,425.00
2023-03-08T01:17:51.866Z,420.00
2023-03-08T01:18:51.970Z,418.00
2023-03-08T01:19:51.836Z,417.00
2023-03-08T01:20:52.975Z,414.00
2023-03-08T01:21:51.817Z,413.00
2023-03-08T01:22:52.904Z,414.00
2023-03-08T01:23:51.788Z,414.00
2023-03-08T01:24:51.976Z,419.00
2023-03-08T01:25:51.795Z,419.00
2023-03-08T01:26:51.956Z,423.00
2023-03-08T01:27:51.739Z,421.00
2023-03-08T01:28:51.800Z,421.00
2023-03-08T01:29:51.713Z,423.00
2023-03-08T01:30:52.156Z,423.00
2023-03-08T01:31:51.877Z,422.00
2023-03-08T01:32:52.803Z,423.00
2023-03-08T01:33:51.666Z,424.00
2023-03-08T01:34:51.806Z,422.00
2023-03-08T01:35:51.668Z,421.00
2023-03-08T01:36:51.783Z,419.00
2023-03-08T01:37:51.634Z,413.00
2023-03-08T01:38:51.678Z,411.00
2023-03-08T01:39:51.590Z,411.00
2023-03-08T01:40:51.720Z,410.00
2023-03-08T01:41:51.553Z,410.00
2023-03-08T01:42:51.697Z,411.00
2023-03-08T01:43:51.538Z,413.00
2023-03-08T01:44:51.705Z,412.00
2023-03-08T01:45:51.513Z,416.00
2023-03-08T01:46:51.619Z,413.00
2023-03-08T01:47:51.478Z,413.00
2023-03-08T01:48:51.634Z,406.00
2023-03-08T01:49:51.478Z,405.00
2023-03-08T01:50:52.601Z,402.00
2023-03-08T01:51:51.421Z,402.00
2023-03-08T01:52:51.615Z,405.00
2023-03-08T01:53:51.398Z,405.00
2023-03-08T01:54:51.660Z,403.00
2023-03-08T01:55:51.370Z,404.00
2023-03-08T01:56:52.420Z,407.00
2023-03-08T01:57:51.343Z,406.00
2023-03-08T01:58:51.421Z,408.00
2023-03-08T01:59:51.389Z,409.00
2023-03-08T02:00:52.429Z,408.00
2023-03-08T02:01:51.287Z,410.00
2023-03-08T02:02:51.396Z,405.00
2023-03-08T02:03:51.263Z,406.00
2023-03-08T02:04:51.417Z,405.00
2023-03-08T02:05:51.240Z,403.00
2023-03-08T02:06:51.304Z,402.00
2023-03-08T02:07:51.205Z,404.00
2023-03-08T02:08:51.292Z,405.00
2023-03-08T02:09:51.201Z,408.00
2023-03-08T02:10:51.334Z,405.00
2023-03-08T02:11:51.163Z,405.00
2023-03-08T02:12:51.323Z,404.00
2023-03-08T02:13:51.140Z,402.00
2023-03-08T02:14:51.210Z,400.00
2023-03-08T02:15:51.110Z,399.00
2023-03-08T02:16:51.237Z,401.00
2023-03-08T02:17:51.084Z,402.00
2023-03-08T02:18:51.230Z,401.00
2023-03-08T02:19:51.073Z,399.00
2023-03-08T02:20:53.202Z,397.00
2023-03-08T02:21:51.038Z,399.00
2023-03-08T02:22:51.139Z,403.00
2023-03-08T02:23:51.023Z,402.00
2023-03-08T02:24:51.128Z,401.00
2023-03-08T02:25:50.991Z,404.00
2023-03-08T02:26:51.109Z,404.00
2023-03-08T02:27:50.952Z,403.00
2023-03-08T02:28:51.059Z,405.00
2023-03-08T02:29:50.933Z,401.00
2023-03-08T02:30:51.146Z,401.00
2023-03-08T02:31:50.900Z,399.00
2023-03-08T02:32:50.959Z,398.00
2023-03-08T02:33:50.884Z,398.00
2023-03-08T02:34:50.950Z,399.00
2023-03-08T02:35:50.891Z,397.00
2023-03-08T02:36:51.970Z,396.00
2023-03-08T02:37:50.834Z,396.00
2023-03-08T02:38:50.921Z,394.00
2023-03-08T02:39:50.814Z,390.00
2023-03-08T02:40:50.960Z,393.00
2023-03-08T02:41:50.788Z,394.00
2023-03-08T02:42:53.450Z,395.00
2023-03-08T02:43:50.759Z,392.00
2023-03-08T02:44:50.833Z,392.00
2023-03-08T02:45:50.730Z,394.00
2023-03-08T02:46:50.873Z,392.00
2023-03-08T02:47:50.698Z,395.00
2023-03-08T02:48:50.857Z,394.00
2023-03-08T02:49:50.664Z,392.00
2023-03-08T02:50:50.839Z,391.00
2023-03-08T02:51:50.648Z,390.00
2023-03-08T02:52:50.667Z,390.00
2023-03-08T02:53:50.617Z,386.00
2023-03-08T02:54:50.756Z,393.00
2023-03-08T02:55:50.597Z,392.00
2023-03-08T02:56:52.739Z,394.00
2023-03-08T02:57:50.563Z,394.00
2023-03-08T02:58:50.676Z,395.00
2023-03-08T02:59:50.545Z,393.00
2023-03-08T03:00:51.590Z,398.00
2023-03-08T03:01:50.506Z,400.00
2023-03-08T03:02:50.677Z,401.00
2023-03-08T03:03:50.503Z,403.00
2023-03-08T03:04:50.589Z,395.00
2023-03-08T03:05:50.456Z,389.00
2023-03-08T03:06:53.852Z,394.00
2023-03-08T03:07:50.429Z,396.00
2023-03-08T03:08:50.553Z,396.00
2023-03-08T03:09:50.403Z,392.00
2023-03-08T03:10:51.515Z,393.00
2023-03-08T03:11:50.387Z,395.00
2023-03-08T03:12:53.661Z,395.00
2023-03-08T03:13:50.352Z,396.00
2023-03-08T03:14:50.451Z,398.00
2023-03-08T03:15:50.364Z,399.00
2023-03-08T03:16:50.495Z,398.00
2023-03-08T03:17:50.311Z,399.00
2023-03-08T03:18:52.520Z,394.00
2023-03-08T03:19:50.262Z,397.00
2023-03-08T03:20:50.359Z,393.00
2023-03-08T03:21:50.252Z,397.00
2023-03-08T03:22:50.291Z,397.00
2023-03-08T03:23:50.229Z,400.00
2023-03-08T03:24:51.358Z,397.00
2023-03-08T03:25:50.192Z,392.00
2023-03-08T03:26:50.367Z,393.00
2023-03-08T03:27:50.164Z,392.00
2023-03-08T03:28:50.210Z,395.00
2023-03-08T03:29:50.159Z,396.00
2023-03-08T03:30:50.254Z,396.00
2023-03-08T03:31:50.125Z,393.00
2023-03-08T03:32:50.165Z,396.00
2023-03-08T03:33:50.075Z,393.00
2023-03-08T03:34:50.197Z,396.00
2023-03-08T03:35:50.102Z,397.00
2023-03-08T03:36:50.259Z,399.00
2023-03-08T03:37:50.042Z,399.00
2023-03-08T03:38:50.072Z,394.00
2023-03-08T03:39:49.995Z,396.00
2023-03-08T03:40:50.106Z,397.00
2023-03-08T03:41:49.994Z,394.00
2023-03-08T03:42:50.143Z,395.00
2023-03-08T03:43:49.949Z,395.00
2023-03-08T03:44:50.082Z,397.00
2023-03-08T03:45:49.924Z,399.00
2023-03-08T03:46:50.142Z,400.00
2023-03-08T03:47:49.927Z,401.00
2023-03-08T03:48:49.956Z,402.00
2023-03-08T03:49:52.413Z,400.00
2023-03-08T03:50:50.008Z,400.00
2023-03-08T03:51:49.863Z,402.00
2023-03-08T03:52:50.058Z,400.00
2023-03-08T03:53:49.853Z,400.00
2023-03-08T03:54:49.898Z,400.00
2023-03-08T03:55:49.805Z,400.00
2023-03-08T03:56:49.971Z,398.00
2023-03-08T03:57:49.772Z,395.00
2023-03-08T03:58:49.896Z,395.00
2023-03-08T03:59:49.769Z,394.00
2023-03-08T04:00:49.824Z,396.00
2023-03-08T04:01:49.790Z,396.00
2023-03-08T04:02:49.899Z,397.00
2023-03-08T04:03:49.746Z,397.00
2023-03-08T04:04:49.796Z,397.00
2023-03-08T04:05:49.703Z,395.00
2023-03-08T04:06:49.831Z,397.00
2023-03-08T04:07:49.655Z,396.00
2023-03-08T04:08:49.672Z,395.00
2023-03-08T04:09:49.606Z,393.00
2023-03-08T04:10:49.735Z,391.00
2023-03-08T04:11:49.606Z,390.00
2023-03-08T04:12:49.778Z,391.00
2023-03-08T04:13:49.759Z,391.00
2023-03-08T04:14:49.711Z,391.00
2023-03-08T04:15:49.615Z,393.00
2023-03-08T04:16:49.677Z,394.00
2023-03-08T04:17:49.557Z,396.00
2023-03-08T04:18:49.615Z,395.00
2023-03-08T04:19:49.546Z,392.00
2023-03-08T04:20:49.643Z,393.00
2023-03-08T04:21:49.495Z,392.00
2023-03-08T04:22:50.587Z,389.00
2023-03-08T04:23:49.452Z,391.00
2023-03-08T04:24:51.626Z,392.00
2023-03-08T04:25:49.411Z,392.00
2023-03-08T04:26:49.541Z,392.00
2023-03-08T04:27:49.381Z,393.00
2023-03-08T04:28:49.472Z,392.00
2023-03-08T04:29:49.385Z,394.00
2023-03-08T04:30:49.511Z,396.00
2023-03-08T04:31:49.331Z,395.00
2023-03-08T04:32:51.536Z,394.00
2023-03-08T04:33:49.313Z,393.00
2023-03-08T04:34:49.362Z,394.00
2023-03-08T04:35:49.342Z,393.00
2023-03-08T04:36:50.419Z,395.00
2023-03-08T04:37:49.811Z,395.00
2023-03-08T04:38:49.331Z,395.00
2023-03-08T04:39:49.228Z,391.00
2023-03-08T04:40:49.371Z,401.00
2023-03-08T04:41:49.222Z,396.00
2023-03-08T04:42:50.232Z,397.00
2023-03-08T04:43:49.182Z,394.00
2023-03-08T04:44:49.317Z,394.00
2023-03-08T04:45:49.148Z,394.00
2023-03-08T04:46:50.609Z,391.00
2023-03-08T04:47:49.734Z,392.00
2023-03-08T04:48:50.600Z,394.00
2023-03-08T04:49:50.051Z,393.00
2023-03-08T04:50:53.601Z,394.00
2023-03-08T04:51:49.405Z,393.00
2023-03-08T04:52:49.884Z,394.00
2023-03-08T04:53:49.060Z,391.00
2023-03-08T04:54:50.214Z,389.00
2023-03-08T04:55:49.021Z,390.00
2023-03-08T04:56:49.201Z,392.00
2023-03-08T04:57:49.042Z,390.00
2023-03-08T04:58:49.095Z,392.00
2023-03-08T04:59:48.979Z,394.00
2023-03-08T05:00:49.052Z,394.00
2023-03-08T05:01:49.009Z,395.00
2023-03-08T05:02:49.121Z,391.00
2023-03-08T05:03:48.927Z,392.00
2023-03-08T05:04:49.185Z,391.00
2023-03-08T05:05:48.948Z,391.00
2023-03-08T05:06:49.998Z,392.00
2023-03-08T05:07:49.234Z,393.00
2023-03-08T05:08:48.895Z,390.00
2023-03-08T05:09:48.828Z,391.00
2023-03-08T05:10:49.050Z,392.00
2023-03-08T05:11:48.843Z,398.00
2023-03-08T05:12:50.409Z,391.00
2023-03-08T05:13:48.858Z,392.00
2023-03-08T05:14:48.932Z,392.00
2023-03-08T05:15:48.808Z,391.00
2023-03-08T05:16:49.887Z,391.00
2023-03-08T05:17:48.754Z,392.00
2023-03-08T05:18:48.795Z,393.00
2023-03-08T05:19:48.745Z,395.00
2023-03-08T05:20:50.503Z,393.00
2023-03-08T05:21:48.717Z,394.00
2023-03-08T05:23:09.739Z,397.00
2023-03-08T05:23:48.652Z,392.00
2023-03-08T05:24:48.778Z,393.00
2023-03-08T05:25:48.622Z,391.00
2023-03-08T05:26:48.794Z,393.00
2023-03-08T05:27:48.600Z,390.00
2023-03-08T05:28:48.681Z,395.00
2023-03-08T05:29:48.564Z,392.00
2023-03-08T05:30:48.654Z,395.00
2023-03-08T05:31:48.596Z,394.00
2023-03-08T05:32:48.633Z,395.00
2023-03-08T05:33:48.806Z,396.00
2023-03-08T05:34:50.630Z,389.00
2023-03-08T05:35:48.765Z,392.00
2023-03-08T05:36:48.612Z,391.00
2023-03-08T05:37:48.471Z,393.00
2023-03-08T05:38:49.577Z,391.00
2023-03-08T05:39:48.429Z,394.00
2023-03-08T05:40:48.624Z,383.00
2023-03-08T05:41:48.483Z,388.00
2023-03-08T05:42:49.434Z,387.00
2023-03-08T05:43:48.380Z,386.00
2023-03-08T05:44:48.456Z,388.00
2023-03-08T05:45:48.452Z,390.00
2023-03-08T05:46:48.540Z,392.00
2023-03-08T05:47:48.322Z,393.00
2023-03-08T05:48:48.425Z,397.00
2023-03-08T05:49:48.294Z,392.00
2023-03-08T05:50:48.453Z,389.00
2023-03-08T05:51:48.332Z,393.00
2023-03-08T05:52:48.350Z,394.00
2023-03-08T05:53:48.242Z,394.00
2023-03-08T05:54:48.319Z,393.00
2023-03-08T05:55:48.214Z,394.00
2023-03-08T05:56:48.350Z,391.00
2023-03-08T05:57:48.190Z,395.00
2023-03-08T05:58:48.609Z,394.00
2023-03-08T05:59:48.163Z,395.00
2023-03-08T06:01:09.317Z,393.00
2023-03-08T06:01:48.161Z,395.00
2023-03-08T06:02:48.257Z,395.00
2023-03-08T06:03:48.111Z,395.00
2023-03-08T06:04:48.263Z,396.00
2023-03-08T06:05:48.076Z,398.00
2023-03-08T06:07:11.196Z,394.00
2023-03-08T06:07:48.057Z,393.00
2023-03-08T06:08:48.182Z,395.00
2023-03-08T06:09:48.060Z,393.00
2023-03-08T06:10:48.191Z,396.00
2023-03-08T06:11:48.003Z,392.00
2023-03-08T06:12:48.136Z,394.00
2023-03-08T06:13:47.974Z,393.00
2023-03-08T06:14:48.075Z,394.00
2023-03-08T06:15:47.944Z,395.00
2023-03-08T06:16:52.396Z,394.00
2023-03-08T06:17:47.924Z,394.00
2023-03-08T06:18:48.042Z,392.00
2023-03-08T06:19:47.904Z,390.00
2023-03-08T06:20:47.972Z,388.00
2023-03-08T06:21:47.975Z,391.00
2023-03-08T06:22:51.249Z,393.00
2023-03-08T06:23:47.863Z,395.00
2023-03-08T06:24:47.942Z,392.00
2023-03-08T06:25:47.811Z,391.00
2023-03-08T06:26:47.986Z,392.00
2023-03-08T06:27:47.805Z,398.00
2023-03-08T06:28:48.894Z,397.00
2023-03-08T06:29:47.954Z,398.00
2023-03-08T06:30:47.896Z,398.00
2023-03-08T06:31:47.760Z,397.00
2023-03-08T06:32:47.896Z,394.00
2023-03-08T06:33:47.718Z,395.00
2023-03-08T06:34:48.912Z,392.00
2023-03-08T06:35:47.729Z,394.00
2023-03-08T06:36:47.860Z,395.00
2023-03-08T06:37:47.678Z,394.00
2023-03-08T06:38:47.696Z,399.00
2023-03-08T06:39:47.713Z,394.00
2023-03-08T06:40:47.853Z,395.00
2023-03-08T06:41:47.628Z,398.00
2023-03-08T06:42:47.810Z,396.00
2023-03-08T06:43:47.611Z,395.00
2023-03-08T06:44:47.708Z,395.00
2023-03-08T06:45:47.627Z,399.00
2023-03-08T06:46:49.746Z,397.00
2023-03-08T06:47:47.558Z,397.00
2023-03-08T06:48:47.612Z,399.00
2023-03-08T06:49:47.676Z,398.00
2023-03-08T06:50:47.654Z,396.00
2023-03-08T06:51:47.485Z,393.00
2023-03-08T06:52:47.628Z,401.00
2023-03-08T06:53:47.450Z,399.00
2023-03-08T06:54:47.579Z,401.00
2023-03-08T06:55:47.445Z,400.00
2023-03-08T06:56:47.607Z,398.00
2023-03-08T06:57:47.432Z,398.00
2023-03-08T06:58:47.668Z,394.00
2023-03-08T06:59:47.521Z,395.00
2023-03-08T07:00:47.496Z,399.00
2023-03-08T07:01:47.353Z,396.00
2023-03-08T07:02:47.519Z,396.00
2023-03-08T07:03:47.327Z,396.00
2023-03-08T07:04:49.863Z,396.00
2023-03-08T07:05:47.295Z,397.00
2023-03-08T07:06:47.386Z,388.00
2023-03-08T07:07:47.267Z,395.00
2023-03-08T07:08:47.314Z,395.00
2023-03-08T07:09:47.236Z,401.00
2023-03-08T07:10:48.338Z,402.00
2023-03-08T07:11:47.209Z,397.00
2023-03-08T07:12:48.326Z,397.00
2023-03-08T07:13:47.184Z,397.00
2023-03-08T07:14:47.323Z,402.00
2023-03-08T07:15:47.177Z,394.00
2023-03-08T07:16:47.370Z,392.00
2023-03-08T07:17:47.136Z,390.00
2023-03-08T07:18:47.205Z,390.00
2023-03-08T07:19:47.105Z,391.00
2023-03-08T07:20:47.515Z,392.00
2023-03-08T07:21:47.092Z,393.00
2023-03-08T07:22:47.241Z,391.00
2023-03-08T07:23:47.054Z,391.00
2023-03-08T07:24:49.310Z,393.00
2023-03-08T07:25:47.031Z,392.00
2023-03-08T07:26:47.131Z,389.00
2023-03-08T07:27:47.016Z,388.00
2023-03-08T07:28:47.281Z,390.00
2023-03-08T07:29:46.974Z,390.00
2023-03-08T07:30:48.135Z,388.00
2023-03-08T07:31:46.977Z,392.00
2023-03-08T07:32:47.264Z,394.00
2023-03-08T07:33:46.930Z,390.00
2023-03-08T07:34:47.032Z,394.00
2023-03-08T07:35:46.932Z,391.00
2023-03-08T07:36:47.014Z,395.00
2023-03-08T07:37:46.874Z,389.00
2023-03-08T07:38:49.052Z,385.00
2023-03-08T07:39:46.855Z,381.00
2023-03-08T07:40:47.033Z,385.00
2023-03-08T07:41:47.737Z,384.00
2023-03-08T07:42:46.922Z,387.00
2023-03-08T07:43:46.863Z,384.00
2023-03-08T07:44:47.906Z,386.00
2023-03-08T07:45:46.773Z,386.00
2023-03-08T07:46:46.895Z,388.00
2023-03-08T07:47:46.758Z,387.00
2023-03-08T07:48:46.909Z,387.00
2023-03-08T07:49:46.737Z,390.00
2023-03-08T07:50:46.864Z,391.00
2023-03-08T07:51:46.693Z,391.00
2023-03-08T07:52:46.745Z,394.00
2023-03-08T07:53:46.665Z,391.00
2023-03-08T07:54:46.735Z,392.00
2023-03-08T07:55:46.650Z,390.00
2023-03-08T07:56:46.775Z,390.00
2023-03-08T07:57:46.611Z,389.00
2023-03-08T07:58:46.759Z,389.00
2023-03-08T07:59:46.620Z,388.00
2023-03-08T08:00:46.746Z,387.00
2023-03-08T08:01:46.554Z,390.00
2023-03-08T08:03:08.615Z,390.00
2023-03-08T08:03:46.568Z,387.00
2023-03-08T08:04:46.664Z,385.00
2023-03-08T08:05:46.537Z,386.00
2023-03-08T08:06:46.656Z,387.00
2023-03-08T08:07:46.495Z,382.00
2023-03-08T08:09:07.570Z,384.00
2023-03-08T08:09:46.466Z,382.00
2023-03-08T08:10:46.572Z,383.00
2023-03-08T08:11:46.464Z,383.00
2023-03-08T08:12:46.552Z,385.00
2023-03-08T08:13:46.402Z,388.00
2023-03-08T08:14:46.484Z,389.00
2023-03-08T08:15:46.378Z,385.00
2023-03-08T08:16:46.468Z,387.00
2023-03-08T08:17:46.389Z,386.00
2023-03-08T08:18:46.333Z,386.00
2023-03-08T08:19:47.463Z,386.00
2023-03-08T08:20:46.336Z,387.00
2023-03-08T08:21:46.478Z,388.00
2023-03-08T08:22:46.291Z,388.00
2023-03-08T08:23:46.436Z,389.00
2023-03-08T08:24:46.251Z,394.00
2023-03-08T08:26:07.312Z,396.00
2023-03-08T08:26:46.221Z,395.00
2023-03-08T08:27:46.366Z,392.00
2023-03-08T08:28:46.213Z,388.00
2023-03-08T08:29:46.318Z,388.00
2023-03-08T08:30:46.169Z,389.00
2023-03-08T08:31:48.434Z,388.00
2023-03-08T08:32:46.203Z,389.00
2023-03-08T08:33:46.177Z,394.00
2023-03-08T08:34:46.138Z,395.00
2023-03-08T08:35:46.238Z,394.00
2023-03-08T08:36:46.091Z,392.00
2023-03-08T08:37:47.165Z,392.00
2023-03-08T08:38:46.071Z,393.00
2023-03-08T08:39:46.187Z,381.00
2023-03-08T08:40:46.059Z,391.00
2023-03-08T08:41:46.220Z,392.00
2023-03-08T08:42:46.034Z,391.00
2023-03-08T08:43:48.144Z,391.00
2023-03-08T08:44:45.988Z,391.00
2023-03-08T08:45:46.122Z,390.00
2023-03-08T08:46:45.991Z,389.00
2023-03-08T08:47:47.050Z,389.00
2023-03-08T08:48:45.940Z,386.00
2023-03-08T08:49:48.138Z,384.00
2023-03-08T08:50:45.956Z,385.00
2023-03-08T08:51:46.086Z,384.00
2023-03-08T08:52:45.938Z,384.00
2023-03-08T08:53:45.921Z,382.00
2023-03-08T08:54:45.848Z,381.00
2023-03-08T08:55:45.965Z,382.00
2023-03-08T08:56:45.826Z,387.00
2023-03-08T08:57:46.058Z,388.00
2023-03-08T08:58:45.821Z,388.00
2023-03-08T08:59:45.927Z,389.00
2023-03-08T09:00:45.776Z,386.00
2023-03-08T09:01:45.856Z,386.00
2023-03-08T09:02:45.818Z,385.00
2023-03-08T09:03:45.858Z,385.00
2023-03-08T09:04:45.828Z,387.00
2023-03-08T09:05:45.839Z,385.00
2023-03-08T09:06:45.721Z,385.00
2023-03-08T09:07:46.795Z,384.00
2023-03-08T09:08:45.676Z,387.00
2023-03-08T09:09:45.799Z,384.00
2023-03-08T09:10:45.671Z,385.00
2023-03-08T09:11:54.565Z,387.00
2023-03-08T09:12:46.683Z,386.00
2023-03-08T09:13:45.673Z,387.00
2023-03-08T09:14:45.595Z,390.00
2023-03-08T09:15:45.707Z,388.00
2023-03-08T09:16:45.622Z,386.00
2023-03-08T09:17:45.755Z,387.00
2023-03-08T09:18:45.563Z,385.00
2023-03-08T09:19:46.716Z,383.00
2023-03-08T09:20:45.523Z,383.00
2023-03-08T09:21:45.617Z,384.00
2023-03-08T09:22:45.518Z,388.00
2023-03-08T09:23:45.552Z,389.00
2023-03-08T09:24:45.471Z,386.00
2023-03-08T09:25:47.681Z,389.00
2023-03-08T09:26:45.450Z,389.00
2023-03-08T09:27:45.630Z,391.00
2023-03-08T09:28:45.473Z,387.00
2023-03-08T09:29:45.462Z,385.00
2023-03-08T09:30:45.393Z,384.00
2023-03-08T09:31:45.619Z,387.00
2023-03-08T09:32:45.460Z,386.00
2023-03-08T09:33:46.452Z,383.00
2023-03-08T09:34:45.371Z,384.00
2023-03-08T09:35:45.497Z,387.00
2023-03-08T09:36:45.318Z,386.00
2023-03-08T09:37:46.431Z,386.00
2023-03-08T09:38:45.294Z,385.00
2023-03-08T09:39:45.343Z,385.00
2023-03-08T09:40:45.284Z,386.00
2023-03-08T09:41:45.386Z,386.00
2023-03-08T09:42:45.267Z,386.00
2023-03-08T09:43:46.344Z,384.00
2023-03-08T09:44:45.221Z,383.00
2023-03-08T09:45:45.357Z,385.00
2023-03-08T09:46:45.206Z,384.00
2023-03-08T09:47:45.288Z,382.00
2023-03-08T09:48:45.156Z,380.00
2023-03-08T09:49:45.216Z,384.00
2023-03-08T09:50:45.129Z,383.00
2023-03-08T09:52:06.287Z,384.00
2023-03-08T09:52:45.135Z,387.00
2023-03-08T09:53:45.184Z,387.00
2023-03-08T09:54:45.130Z,387.00
2023-03-08T09:56:56.152Z,437.00
2023-03-08T09:57:55.034Z,397.00
2023-03-08T09:58:57.147Z,394.00
2023-03-08T09:59:54.986Z,390.00
2023-03-08T10:00:56.122Z,389.00
2023-03-08T10:01:54.952Z,389.00
2023-03-08T10:02:55.038Z,384.00
2023-03-08T10:03:55.046Z,384.00
2023-03-08T10:05:11.565Z,387.00
2023-03-08T10:05:55.915Z,388.00
2023-03-08T10:06:57.078Z,389.00
2023-03-08T10:07:54.882Z,390.00
2023-03-08T10:08:55.015Z,393.00
2023-03-08T10:09:54.856Z,389.00
2023-03-08T10:10:54.966Z,391.00
2023-03-08T10:11:54.836Z,389.00
2023-03-08T10:12:54.887Z,392.00
2023-03-08T10:13:54.784Z,390.00
2023-03-08T10:14:54.940Z,396.00
2023-03-08T10:15:54.778Z,387.00
2023-03-08T10:16:54.937Z,398.00
2023-03-08T10:17:54.724Z,391.00
2023-03-08T10:18:55.924Z,391.00
2023-03-08T10:19:54.706Z,393.00
2023-03-08T10:20:54.727Z,388.00
2023-03-08T10:21:54.696Z,387.00
2023-03-08T10:22:54.767Z,390.00
2023-03-08T10:23:54.644Z,392.00
2023-03-08T10:24:54.792Z,393.00
2023-03-08T10:25:54.629Z,391.00
2023-03-08T10:26:54.740Z,390.00
2023-03-08T10:27:54.628Z,394.00
2023-03-08T10:28:54.777Z,394.00
2023-03-08T10:29:54.577Z,394.00
2023-03-08T10:30:54.648Z,393.00
2023-03-08T10:31:54.545Z,393.00
2023-03-08T10:32:56.463Z,391.00
2023-03-08T10:33:54.530Z,391.00
2023-03-08T10:34:54.676Z,390.00
2023-03-08T10:35:54.520Z,391.00
2023-03-08T10:37:15.597Z,391.00
2023-03-08T10:37:54.459Z,389.00
2023-03-08T10:38:54.694Z,391.00
2023-03-08T10:39:54.475Z,387.00
2023-03-08T10:40:54.488Z,392.00
2023-03-08T10:41:54.409Z,394.00
2023-03-08T10:43:15.497Z,390.00
2023-03-08T10:43:54.389Z,392.00
2023-03-08T10:44:54.480Z,393.00
2023-03-08T10:45:54.394Z,393.00
2023-03-08T10:46:54.491Z,394.00
2023-03-08T10:47:54.337Z,392.00
2023-03-08T10:48:54.441Z,391.00
2023-03-08T10:49:54.300Z,391.00
2023-03-08T10:50:54.469Z,392.00
2023-03-08T10:51:54.292Z,388.00
2023-03-08T10:52:54.404Z,392.00
2023-03-08T10:53:54.253Z,393.00
2023-03-08T10:54:54.329Z,393.00
2023-03-08T10:55:54.284Z,390.00
2023-03-08T10:56:54.360Z,390.00
2023-03-08T10:57:54.221Z,394.00
2023-03-08T10:58:54.301Z,393.00
2023-03-08T10:59:54.169Z,390.00
2023-03-08T11:00:54.232Z,409.00
2023-03-08T11:01:54.196Z,382.00
2023-03-08T11:02:54.276Z,392.00
2023-03-08T11:03:54.118Z,400.00
2023-03-08T11:04:56.376Z,399.00
2023-03-08T11:05:54.086Z,404.00
2023-03-08T11:06:54.182Z,395.00
2023-03-08T11:07:54.084Z,396.00
2023-03-08T11:08:54.177Z,393.00
2023-03-08T11:09:54.050Z,391.00
2023-03-08T11:10:54.155Z,394.00
2023-03-08T11:11:54.006Z,393.00
2023-03-08T11:12:54.155Z,395.00
2023-03-08T11:13:53.986Z,394.00
2023-03-08T11:14:54.180Z,399.00
2023-03-08T11:15:54.029Z,397.00
2023-03-08T11:16:54.017Z,392.00
2023-03-08T11:17:53.935Z,394.00
2023-03-08T11:18:54.085Z,391.00
2023-03-08T11:19:53.899Z,393.00
2023-03-08T11:20:53.989Z,388.00
2023-03-08T11:21:53.897Z,393.00
2023-03-08T11:22:54.021Z,392.00
2023-03-08T11:23:53.917Z,401.00
2023-03-08T11:24:53.956Z,396.00
2023-03-08T11:25:53.834Z,391.00
2023-03-08T11:26:56.041Z,389.00
2023-03-08T11:27:53.845Z,393.00
2023-03-08T11:28:54.023Z,387.00
2023-03-08T11:29:53.757Z,392.00
2023-03-08T11:30:53.924Z,393.00
2023-03-08T11:31:53.740Z,394.00
2023-03-08T11:32:54.025Z,375.00
2023-03-08T11:33:53.784Z,403.00
2023-03-08T11:34:53.728Z,398.00
2023-03-08T11:35:53.701Z,394.00
2023-03-08T11:36:53.770Z,395.00
2023-03-08T11:37:53.659Z,399.00
2023-03-08T11:39:18.010Z,391.00
2023-03-08T11:39:53.638Z,395.00
2023-03-08T11:40:53.742Z,392.00
2023-03-08T11:41:53.600Z,389.00
2023-03-08T11:42:54.799Z,392.00
2023-03-08T11:43:53.587Z,388.00
2023-03-08T11:44:53.690Z,384.00
2023-03-08T11:45:53.672Z,387.00
2023-03-08T11:46:53.680Z,389.00
2023-03-08T11:47:53.555Z,395.00
2023-03-08T11:48:53.707Z,389.00
2023-03-08T11:49:53.506Z,380.00
2023-03-08T11:50:53.665Z,386.00
2023-03-08T11:51:53.489Z,389.00
2023-03-08T11:52:53.656Z,396.00
2023-03-08T11:53:53.483Z,393.00
2023-03-08T11:54:54.623Z,389.00
2023-03-08T11:55:53.444Z,384.00
2023-03-08T11:56:53.576Z,387.00
2023-03-08T11:57:53.605Z,384.00
2023-03-08T11:58:53.556Z,386.00
2023-03-08T11:59:53.372Z,391.00
2023-03-08T12:00:54.516Z,385.00
2023-03-08T12:01:53.336Z,389.00
2023-03-08T12:02:53.382Z,390.00
2023-03-08T12:03:53.502Z,387.00
2023-03-08T12:04:53.496Z,384.00
2023-03-08T12:05:53.476Z,387.00
2023-03-08T12:06:54.556Z,385.00
2023-03-08T12:07:53.311Z,387.00
2023-03-08T12:08:53.403Z,389.00
2023-03-08T12:09:53.265Z,392.00
2023-03-08T12:10:53.404Z,394.00
2023-03-08T12:11:53.223Z,382.00
2023-03-08T12:12:55.319Z,386.00
2023-03-08T12:13:53.200Z,389.00
2023-03-08T12:14:53.288Z,387.00
2023-03-08T12:15:53.196Z,385.00
2023-03-08T12:16:53.481Z,389.00
2023-03-08T12:17:53.127Z,388.00
2023-03-08T12:20:02.586Z,406.00
2023-03-08T12:21:02.374Z,389.00
2023-03-08T12:22:02.514Z,391.00
2023-03-08T12:23:02.387Z,390.00
2023-03-08T12:24:04.014Z,391.00
2023-03-08T12:25:02.363Z,386.00
2023-03-08T12:26:02.444Z,389.00
2023-03-08T12:27:02.291Z,387.00
2023-03-08T12:28:03.367Z,399.00
2023-03-08T12:29:02.277Z,393.00
2023-03-08T12:30:02.355Z,392.00
2023-03-08T12:31:02.288Z,392.00